Nearby METAR Reports

 

K1A5 - Macon/Franklin, North Carolina, USA
Distance from station: WSW 16mi, 25km
Updated: Fri, 25-Sep-2020 2:35pm EDT
Overcast
Overcast
 Wind from calm
Wind: Calm
Temperature: 70°F , 21°C
Dew Point: 64°F , 18°C
Humidity: 83%
Barometer: 30.05 inHg , 1017.6 hPa
Clouds: Overcast
Visibility: 10 miles , 16 km
Cloud details: Overcast 2800 ft
2020/09/25 18:35 K1A5 251835Z AUTO 00000KT 10SM OVC028 21/18 A3005 RMK AO2 T02100176
KAVL - Asheville, North Carolina, USA
Distance from station: ENE 36mi, 59km
Updated: Fri, 25-Sep-2020 1:54pm EDT
Mist, Overcast
Mist, Overcast
 Wind from SSE
Wind: SSE 6 mph , 9 km/h
Temperature: 61°F , 16°C
Dew Point: 61°F , 16°C
Humidity: 100%
Barometer: 30.06 inHg , 1017.9 hPa
Summary: Mist
Clouds: Overcast
Visibility: 6 miles , 10 km
Cloud details: Overcast 600 ft
2020/09/25 17:54 KAVL 251754Z 15005KT 6SM BR OVC006 16/16 A3006 RMK AO2 SLP163 60017 T01610156 10167 20144 58007
 
KRHP - Andrews, North Carolina, USA
Distance from station: WSW 40mi, 64km
Updated: Fri, 25-Sep-2020 2:35pm EDT
Overcast
Overcast
 Wind from calm
Wind: Calm
Temperature: 68°F , 20°C
Dew Point: 66°F , 19°C
Humidity: 94%
Barometer: 30.00 inHg , 1015.9 hPa
Clouds: Overcast
Visibility: 10 miles , 16 km
Cloud details: Partly cloudy 1000 ft
Overcast 2300 ft
2020/09/25 18:35 KRHP 251835Z AUTO 00000KT 10SM SCT010 OVC023 20/19 A3000 RMK AO2 T02000188
KLQK - Pickens, South Carolina, USA
Distance from station: SE 42mi, 68km
Updated: Fri, 25-Sep-2020 2:35pm EDT
Overcast
Overcast
 Wind from E
Wind: E 5 mph , 7 km/h
Temperature: 66°F , 19°C
Dew Point: 66°F , 19°C
Humidity: 100%
Barometer: 30.00 inHg , 1015.9 hPa
Clouds: Overcast
Visibility: 10 miles , 16 km
Cloud details: Overcast 700 ft
2020/09/25 18:35 KLQK 251835Z AUTO 09004KT 10SM OVC007 19/19 A3000 RMK AO2 T01870186
 
KCEU - Clemson, South Carolina, USA
Distance from station: SSE 46mi, 75km
Updated: Fri, 25-Sep-2020 1:54pm EDT
Overcast
Overcast
 Wind from NE
Wind: NE 7 mph , 11 km/h
Temperature: 64°F , 18°C
Dew Point: 61°F , 16°C
Humidity: 88%
Barometer: 30.02 inHg , 1016.6 hPa
Clouds: Overcast
Visibility: 7 miles , 11 km
Cloud details: Overcast 600 ft
2020/09/25 17:54 KCEU 251754Z AUTO 05006KT 7SM OVC006 18/16 A3002 RMK AO2 SLP158 60000 T01780161 10178 20161 58009
KTOC - Toccoa, Georgia, USA
Distance from station: S 49mi, 79km
Updated: Fri, 25-Sep-2020 2:35pm EDT
Light drizzle, Overcast
Light drizzle, Overcast
 Wind from N
Wind: N 3 mph , 6 km/h
Barometer: 30.01 inHg , 1016.3 hPa
Summary: Light Drizzle
Clouds: Overcast
Visibility: 3 miles , 5 km
Cloud details: Overcast 400 ft
2020/09/25 18:35 KTOC 251835Z AUTO 01003KT 3SM -DZ OVC004 A3001 RMK AO2